createdAt,value
2022-09-02T00:02:24.784Z,6.13
2022-09-02T00:04:52.236Z,5.55
2022-09-02T00:07:20.964Z,4.95
2022-09-02T00:09:48.336Z,4.32
2022-09-02T00:12:16.438Z,3.13
2022-09-02T00:14:43.858Z,2.30
2022-09-02T00:17:11.345Z,2.10
2022-09-02T00:19:39.201Z,1.95
2022-09-02T00:22:06.750Z,1.42
2022-09-02T00:24:35.539Z,1.92
2022-09-02T00:27:03.400Z,1.70
2022-09-02T00:29:30.879Z,2.13
2022-09-02T00:31:58.930Z,2.20
2022-09-02T00:34:27.422Z,2.30
2022-09-02T00:36:54.845Z,2.10
2022-09-02T00:39:22.248Z,1.85
2022-09-02T00:41:51.475Z,1.63
2022-09-02T00:44:21.725Z,1.50
2022-09-02T00:46:50.396Z,1.42
2022-09-02T00:49:24.228Z,1.63
2022-09-02T00:51:55.557Z,1.92
2022-09-02T00:54:25.042Z,2.13
2022-09-02T00:56:56.167Z,2.25
2022-09-02T00:59:28.485Z,2.45
2022-09-02T01:01:56.242Z,2.58
2022-09-02T01:04:23.792Z,2.55
2022-09-02T01:06:52.189Z,3.00
2022-09-02T01:09:20.092Z,2.90
2022-09-02T01:11:52.688Z,2.75
2022-09-02T01:14:22.062Z,2.95
2022-09-02T01:16:51.681Z,2.88
2022-09-02T01:19:23.763Z,2.80
2022-09-02T01:21:53.825Z,2.72
2022-09-02T01:24:23.259Z,2.22
2022-09-02T01:26:53.517Z,2.03
2022-09-02T01:29:21.316Z,2.35
2022-09-02T01:31:49.051Z,2.05
2022-09-02T01:34:16.881Z,2.42
2022-09-02T01:36:45.031Z,2.58
2022-09-02T01:39:18.152Z,2.63
2022-09-02T01:41:45.895Z,2.25
2022-09-02T01:44:16.090Z,2.47
2022-09-02T01:46:43.554Z,2.10
2022-09-02T01:49:11.091Z,2.10
2022-09-02T01:51:38.687Z,2.22
2022-09-02T01:54:06.708Z,1.80
2022-09-02T01:56:35.828Z,1.88
2022-09-02T01:59:03.261Z,1.85
2022-09-02T02:01:31.487Z,1.75
2022-09-02T02:03:59.120Z,1.40
2022-09-02T02:06:26.635Z,1.55
2022-09-02T02:08:54.783Z,1.38
2022-09-02T02:11:23.968Z,1.20
2022-09-02T02:13:52.828Z,1.33
2022-09-02T02:16:20.264Z,1.20
2022-09-02T02:18:47.701Z,1.40
2022-09-02T02:21:15.158Z,1.35
2022-09-02T02:23:42.592Z,1.17
2022-09-02T02:26:10.289Z,1.10
2022-09-02T02:28:38.071Z,1.10
2022-09-02T02:31:07.656Z,1.00
2022-09-02T02:33:36.196Z,1.00
2022-09-02T02:36:05.378Z,1.00
2022-09-02T02:38:33.123Z,0.93
2022-09-02T02:41:01.913Z,1.10
2022-09-02T02:43:29.335Z,1.00
2022-09-02T02:45:56.767Z,1.00
2022-09-02T02:48:25.963Z,1.10
2022-09-02T02:50:54.091Z,1.00
2022-09-02T02:53:21.940Z,1.20
2022-09-02T02:55:50.049Z,1.10
2022-09-02T02:58:19.097Z,1.20
2022-09-02T03:00:46.581Z,1.00
2022-09-02T03:03:19.276Z,1.00
2022-09-02T03:05:48.428Z,0.90
2022-09-02T03:08:16.327Z,0.80
2022-09-02T03:10:44.620Z,1.00
2022-09-02T03:13:12.784Z,1.17
2022-09-02T03:15:43.066Z,0.90
2022-09-02T03:18:10.499Z,0.90
2022-09-02T03:20:37.899Z,0.82
2022-09-02T03:23:06.624Z,0.77
2022-09-02T03:25:35.993Z,0.80
2022-09-02T03:28:04.944Z,0.80
2022-09-02T03:30:34.187Z,0.80
2022-09-02T03:33:04.222Z,0.82
2022-09-02T03:35:32.899Z,0.70
2022-09-02T03:38:01.305Z,0.82
2022-09-02T03:40:30.563Z,0.80
2022-09-02T03:43:00.374Z,1.23
2022-09-02T03:45:28.600Z,0.73
2022-09-02T03:47:56.529Z,0.90
2022-09-02T03:50:27.620Z,0.80
2022-09-02T03:52:55.658Z,1.00
2022-09-02T03:55:24.377Z,0.90
2022-09-02T03:57:53.107Z,0.80
2022-09-02T04:00:25.135Z,0.80
2022-09-02T04:02:55.271Z,0.77
2022-09-02T04:05:23.801Z,0.73
2022-09-02T04:07:52.585Z,0.70
2022-09-02T04:10:21.900Z,0.80
2022-09-02T04:12:50.097Z,0.70
2022-09-02T04:15:19.798Z,0.70
2022-09-02T04:17:47.384Z,0.73
2022-09-02T04:20:16.132Z,0.70
2022-09-02T04:22:43.500Z,0.75
2022-09-02T04:25:11.507Z,0.90
2022-09-02T04:27:39.203Z,0.70
2022-09-02T04:30:08.985Z,0.70
2022-09-02T04:32:40.613Z,0.80
2022-09-02T04:35:09.023Z,0.80
2022-09-02T04:37:36.433Z,0.75
2022-09-02T04:40:04.451Z,0.90
2022-09-02T04:42:31.984Z,0.70
2022-09-02T04:44:59.384Z,0.85
2022-09-02T04:47:27.755Z,0.90
2022-09-02T04:49:56.481Z,0.95
2022-09-02T04:52:23.873Z,1.10
2022-09-02T04:54:51.628Z,1.10
2022-09-02T04:57:19.143Z,1.27
2022-09-02T04:59:46.669Z,1.10
2022-09-02T05:02:14.183Z,1.10
2022-09-02T05:04:41.688Z,1.02
2022-09-02T05:07:11.847Z,1.00
2022-09-02T05:09:42.813Z,1.00
2022-09-02T05:12:10.607Z,0.95
2022-09-02T05:14:38.346Z,0.90
2022-09-02T05:17:07.862Z,1.20
2022-09-02T05:19:38.868Z,0.85
2022-09-02T05:22:06.313Z,0.98
2022-09-02T05:24:35.016Z,2.00
2022-09-02T05:27:02.530Z,2.45
2022-09-02T05:29:29.941Z,1.08
2022-09-02T05:31:57.480Z,1.38
2022-09-02T05:34:25.116Z,1.70
2022-09-02T05:36:53.072Z,1.98
2022-09-02T05:39:20.464Z,2.75
2022-09-02T05:41:49.272Z,3.03
2022-09-02T05:44:16.654Z,3.47
2022-09-02T05:46:48.561Z,3.85
2022-09-02T05:49:18.195Z,3.85
2022-09-02T05:51:47.907Z,3.80
2022-09-02T05:54:18.085Z,4.30
2022-09-02T05:56:47.383Z,3.95
2022-09-02T05:59:16.968Z,3.90
2022-09-02T06:01:45.015Z,3.55
2022-09-02T06:04:12.515Z,3.20
2022-09-02T06:06:40.907Z,3.55
2022-09-02T06:09:10.456Z,3.88
2022-09-02T06:11:42.224Z,3.90
2022-09-02T06:14:09.676Z,4.00
2022-09-02T06:16:39.758Z,4.22
2022-09-02T06:19:07.926Z,4.30
2022-09-02T06:21:37.019Z,4.13
2022-09-02T06:24:05.996Z,4.47
2022-09-02T06:26:33.649Z,3.78
2022-09-02T06:29:01.100Z,1.98
2022-09-02T06:31:28.605Z,1.60
2022-09-02T06:34:04.631Z,1.40
2022-09-02T06:36:32.666Z,1.40
2022-09-02T06:39:01.510Z,1.10
2022-09-02T06:41:31.355Z,1.00
2022-09-02T06:44:01.204Z,0.80
2022-09-02T06:46:30.875Z,0.73
2022-09-02T06:48:58.551Z,0.50
2022-09-02T06:51:28.594Z,0.50
2022-09-02T06:53:56.079Z,0.50
2022-09-02T06:56:23.608Z,0.52
2022-09-02T06:58:51.431Z,0.73
2022-09-02T07:01:20.665Z,0.68
2022-09-02T07:04:05.397Z,0.90
2022-09-02T07:09:05.463Z,0.98
2022-09-02T07:11:33.274Z,1.50
2022-09-02T07:14:01.783Z,1.75
2022-09-02T07:16:30.030Z,5.60
2022-09-02T07:19:01.111Z,6.97
2022-09-02T07:21:29.098Z,2.22
2022-09-02T07:23:59.518Z,1.77
2022-09-02T07:26:27.757Z,1.10
2022-09-02T07:28:55.830Z,1.08
2022-09-02T07:31:24.033Z,1.20
2022-09-02T07:33:51.523Z,1.95
2022-09-02T07:36:21.525Z,2.00
2022-09-02T07:38:49.556Z,2.20
2022-09-02T07:41:18.704Z,1.95
2022-09-02T07:43:49.617Z,1.00
2022-09-02T07:46:19.575Z,0.95
2022-09-02T07:48:50.111Z,1.85
2022-09-02T07:51:18.466Z,0.60
2022-09-02T07:53:46.380Z,1.17
2022-09-02T07:56:14.841Z,0.60
2022-09-02T07:58:44.365Z,0.70
2022-09-02T08:01:13.590Z,0.70
2022-09-02T08:03:44.271Z,0.70
2022-09-02T08:06:13.784Z,0.60
2022-09-02T08:08:41.299Z,0.50
2022-09-02T08:11:08.861Z,0.57
2022-09-02T08:13:37.972Z,0.65
2022-09-02T08:16:07.079Z,0.80
2022-09-02T08:18:34.956Z,0.93
2022-09-02T08:21:02.650Z,2.22
2022-09-02T08:23:37.825Z,2.88
2022-09-02T08:26:06.474Z,2.22
2022-09-02T08:28:34.029Z,2.53
2022-09-02T08:31:07.355Z,2.85
2022-09-02T08:33:34.966Z,4.35
2022-09-02T08:36:06.741Z,5.93
2022-09-02T08:38:34.167Z,4.57
2022-09-02T08:41:01.917Z,2.30
2022-09-02T08:43:37.306Z,1.15
2022-09-02T08:46:06.456Z,1.60
2022-09-02T08:48:40.440Z,1.58
2022-09-02T08:51:11.198Z,1.40
2022-09-02T08:53:46.985Z,0.73
2022-09-02T08:56:17.055Z,1.58
2022-09-02T08:58:47.475Z,1.50
2022-09-02T09:01:21.894Z,1.50
2022-09-02T09:04:14.834Z,2.38
2022-09-02T09:06:56.283Z,1.90
2022-09-02T09:09:33.573Z,2.53
2022-09-02T09:12:07.732Z,2.60
2022-09-02T09:17:14.476Z,1.00
2022-09-02T09:19:49.526Z,0.80
2022-09-02T09:22:20.657Z,1.17
2022-09-02T09:24:50.567Z,0.43
2022-09-02T09:27:20.531Z,0.52
2022-09-02T09:29:49.276Z,1.10
2022-09-02T09:32:24.320Z,1.02
2022-09-02T09:35:06.871Z,1.00
2022-09-02T09:37:37.472Z,0.80
2022-09-02T09:40:31.465Z,0.80
2022-09-02T09:45:33.159Z,2.33
2022-09-02T09:48:14.829Z,0.68
2022-09-02T09:50:43.979Z,0.60
2022-09-02T09:53:21.584Z,0.70
2022-09-02T09:55:55.146Z,0.60
2022-09-02T09:58:24.831Z,0.60
2022-09-02T10:00:57.180Z,0.55
2022-09-02T10:03:27.620Z,0.50
2022-09-02T10:06:19.918Z,0.60
2022-09-02T10:08:53.589Z,0.50
2022-09-02T10:11:23.820Z,0.50
2022-09-02T10:13:51.602Z,0.50
2022-09-02T10:16:32.465Z,0.70
2022-09-02T10:19:12.071Z,0.50
2022-09-02T10:21:58.112Z,0.60
2022-09-02T10:24:45.357Z,0.50
2022-09-02T10:27:16.534Z,0.50
2022-09-02T10:29:55.736Z,0.50
2022-09-02T10:32:51.665Z,0.57
2022-09-02T10:35:26.007Z,0.60
2022-09-02T10:38:07.873Z,0.60
2022-09-02T10:40:42.484Z,1.15
2022-09-02T10:43:20.570Z,0.60
2022-09-02T10:45:50.837Z,0.60
2022-09-02T10:48:32.061Z,0.50
2022-09-02T10:51:05.751Z,0.55
2022-09-02T10:53:49.432Z,0.60
2022-09-02T10:56:21.442Z,0.53
2022-09-02T10:58:54.999Z,0.52
2022-09-02T11:01:27.655Z,0.50
2022-09-02T11:04:03.897Z,0.60
2022-09-02T11:06:58.661Z,1.02
2022-09-02T11:09:32.148Z,0.80
2022-09-02T11:12:06.553Z,0.70
2022-09-02T11:14:38.090Z,0.70
2022-09-02T11:17:13.438Z,0.60
2022-09-02T11:19:47.794Z,0.60
2022-09-02T11:22:27.336Z,0.60
2022-09-02T11:25:04.152Z,0.60
2022-09-02T11:27:42.464Z,0.60
2022-09-02T11:30:15.751Z,0.60
2022-09-02T11:32:50.440Z,0.50
2022-09-02T11:35:21.379Z,0.50
2022-09-02T11:37:53.390Z,0.60
2022-09-02T11:40:36.584Z,0.60
2022-09-02T11:43:15.667Z,0.50
2022-09-02T11:46:08.205Z,0.50
2022-09-02T11:49:00.049Z,0.50
2022-09-02T11:51:43.816Z,0.50
2022-09-02T11:54:15.570Z,0.43
2022-09-02T11:56:47.163Z,0.50
2022-09-02T11:59:22.136Z,0.50
2022-09-02T12:01:51.516Z,0.50
2022-09-02T12:07:26.825Z,0.70
2022-09-02T12:09:57.669Z,0.60
2022-09-02T12:13:08.103Z,0.50
2022-09-02T12:15:36.350Z,0.50
2022-09-02T12:18:12.556Z,0.50
2022-09-02T12:21:06.083Z,0.50
2022-09-02T12:24:12.435Z,1.00
2022-09-02T12:27:09.282Z,0.93
2022-09-02T12:29:38.054Z,0.70
2022-09-02T12:32:09.361Z,0.77
2022-09-02T12:35:10.088Z,0.90
2022-09-02T12:37:56.885Z,0.90
2022-09-02T12:40:32.265Z,0.80
2022-09-02T12:43:03.552Z,0.80
2022-09-02T12:45:35.001Z,0.70
2022-09-02T12:48:08.608Z,1.17
2022-09-02T12:50:53.784Z,1.02
2022-09-02T12:53:49.882Z,1.20
2022-09-02T12:56:23.131Z,1.10
2022-09-02T12:58:53.248Z,1.10
2022-09-02T13:01:30.917Z,1.02
2022-09-02T13:04:11.285Z,0.90
2022-09-02T13:07:00.314Z,0.88
2022-09-02T13:10:12.841Z,0.80
2022-09-02T13:13:15.217Z,0.90
2022-09-02T13:15:58.043Z,0.80
2022-09-02T13:18:58.492Z,0.80
2022-09-02T13:21:48.933Z,1.85
2022-09-02T13:24:46.590Z,0.80
2022-09-02T13:27:34.357Z,0.80
2022-09-02T13:30:21.952Z,0.95
2022-09-02T13:32:58.095Z,0.80
2022-09-02T13:35:28.884Z,0.88
2022-09-02T13:38:00.364Z,0.80
2022-09-02T13:40:30.128Z,1.00
2022-09-02T13:43:01.376Z,0.90
2022-09-02T13:45:34.390Z,0.88
2022-09-02T13:48:09.520Z,1.05
2022-09-02T13:50:43.205Z,0.85
2022-09-02T13:56:06.730Z,0.80
2022-09-02T13:58:38.085Z,0.80
2022-09-02T14:01:21.985Z,0.80
2022-09-02T14:03:51.721Z,0.80
2022-09-02T14:06:23.639Z,0.90
2022-09-02T14:08:53.646Z,0.90
2022-09-02T14:11:22.107Z,0.85
2022-09-02T14:13:51.208Z,0.88
2022-09-02T14:16:27.684Z,0.80
2022-09-02T14:19:10.557Z,0.88
2022-09-02T14:21:46.782Z,0.85
2022-09-02T14:24:16.537Z,0.90
2022-09-02T14:26:47.033Z,0.90
2022-09-02T14:29:16.842Z,1.45
2022-09-02T14:31:44.615Z,0.90
2022-09-02T14:34:35.625Z,1.00
2022-09-02T14:37:19.228Z,1.00
2022-09-02T14:40:08.250Z,0.90
2022-09-02T14:42:45.142Z,0.93
2022-09-02T14:45:13.704Z,0.80
2022-09-02T14:47:42.435Z,0.85
2022-09-02T14:50:12.559Z,0.90
2022-09-02T14:52:48.147Z,0.70
2022-09-02T14:55:52.369Z,0.70
2022-09-02T14:58:23.158Z,0.70
2022-09-02T15:00:56.166Z,0.80
2022-09-02T15:03:24.684Z,0.75
2022-09-02T15:05:53.763Z,0.90
2022-09-02T15:08:24.737Z,0.80
2022-09-02T15:10:54.156Z,0.80
2022-09-02T15:13:27.950Z,0.80
2022-09-02T15:15:56.757Z,0.90
2022-09-02T15:18:24.527Z,1.00
2022-09-02T15:20:52.575Z,0.90
2022-09-02T15:23:19.971Z,0.70
2022-09-02T15:25:49.112Z,0.80
2022-09-02T15:28:16.601Z,0.90
2022-09-02T15:30:44.324Z,0.80
2022-09-02T15:33:19.830Z,0.88
2022-09-02T15:35:47.680Z,0.80
2022-09-02T15:38:15.400Z,0.73
2022-09-02T15:40:43.540Z,0.70
2022-09-02T15:43:12.472Z,0.73
2022-09-02T15:45:45.985Z,0.70
2022-09-02T15:48:13.582Z,0.70
2022-09-02T15:50:41.149Z,1.00
2022-09-02T15:53:08.537Z,1.10
2022-09-02T15:55:35.984Z,1.15
2022-09-02T15:58:03.441Z,1.20
2022-09-02T16:00:34.959Z,1.05
2022-09-02T16:03:02.541Z,1.27
2022-09-02T16:05:30.572Z,1.00
2022-09-02T16:07:57.973Z,2.08
2022-09-02T16:10:25.379Z,1.30
2022-09-02T16:12:52.851Z,1.00
2022-09-02T16:15:20.856Z,1.10
2022-09-02T16:17:51.023Z,1.00
2022-09-02T16:20:21.232Z,1.00
2022-09-02T16:22:54.393Z,0.82
2022-09-02T16:25:22.471Z,0.90
2022-09-02T16:27:52.903Z,0.90
2022-09-02T16:30:21.417Z,0.90
2022-09-02T16:32:51.570Z,1.05
2022-09-02T16:35:19.003Z,1.00
2022-09-02T16:37:46.468Z,1.00
2022-09-02T16:40:21.092Z,1.00
2022-09-02T16:42:48.877Z,0.80
2022-09-02T16:45:16.502Z,0.90
2022-09-02T16:47:43.933Z,1.08
2022-09-02T16:50:12.693Z,0.93
2022-09-02T16:52:41.029Z,0.90
2022-09-02T16:55:08.957Z,1.00
2022-09-02T16:57:36.332Z,1.10
2022-09-02T17:00:05.121Z,1.20
2022-09-02T17:02:32.609Z,1.40
2022-09-02T17:05:00.038Z,1.40
2022-09-02T17:07:28.740Z,1.25
2022-09-02T17:09:56.117Z,1.23
2022-09-02T17:12:23.526Z,1.35
2022-09-02T17:14:51.032Z,1.30
2022-09-02T17:17:18.561Z,1.30
2022-09-02T17:19:45.950Z,1.40
2022-09-02T17:22:13.344Z,1.27
2022-09-02T17:24:42.279Z,1.25
2022-09-02T17:27:10.091Z,1.27
2022-09-02T17:29:53.620Z,1.30
2022-09-02T17:32:21.190Z,1.23
2022-09-02T17:34:50.651Z,1.35
2022-09-02T17:37:18.105Z,1.33
2022-09-02T17:39:46.931Z,1.40
2022-09-02T17:42:13.509Z,1.20
2022-09-02T17:44:42.403Z,1.20
2022-09-02T17:47:12.367Z,1.00
2022-09-02T17:49:42.159Z,0.80
2022-09-02T17:52:09.685Z,0.75
2022-09-02T17:54:38.334Z,0.80
2022-09-02T17:57:21.505Z,0.77
2022-09-02T18:00:00.424Z,0.80
2022-09-02T18:02:41.399Z,0.88
2022-09-02T18:05:17.708Z,1.02
2022-09-02T18:07:53.672Z,0.93
2022-09-02T18:10:22.470Z,0.80
2022-09-02T18:12:51.189Z,0.88
2022-09-02T18:15:19.344Z,0.80
2022-09-02T18:17:49.224Z,0.70
2022-09-02T18:20:23.727Z,0.80
2022-09-02T18:23:18.801Z,0.70
2022-09-02T18:25:54.101Z,0.68
2022-09-02T18:28:35.639Z,0.70
2022-09-02T18:31:15.466Z,0.65
2022-09-02T18:33:57.305Z,0.85
2022-09-02T18:36:36.152Z,0.85
2022-09-02T18:39:22.696Z,0.70
2022-09-02T18:42:04.079Z,0.63
2022-09-02T18:44:40.456Z,0.70
2022-09-02T18:47:14.241Z,0.70
2022-09-02T18:49:44.453Z,0.75
2022-09-02T18:52:12.752Z,1.52
2022-09-02T18:54:46.384Z,0.63
2022-09-02T18:57:14.452Z,0.60
2022-09-02T18:59:48.821Z,0.50
2022-09-02T19:02:23.946Z,0.55
2022-09-02T19:04:51.468Z,0.60
2022-09-02T19:07:38.633Z,0.52
2022-09-02T19:10:08.952Z,0.60
2022-09-02T19:12:38.041Z,0.60
2022-09-02T19:15:10.744Z,0.60
2022-09-02T19:17:40.866Z,0.60
2022-09-02T19:20:09.520Z,0.55
2022-09-02T19:22:41.140Z,0.60
2022-09-02T19:25:14.166Z,1.55
2022-09-02T19:27:44.580Z,0.57
2022-09-02T19:30:15.689Z,0.60
2022-09-02T19:32:46.369Z,0.60
2022-09-02T19:35:17.201Z,0.85
2022-09-02T19:37:47.154Z,0.60
2022-09-02T19:40:17.152Z,0.60
2022-09-02T19:42:46.073Z,0.65
2022-09-02T19:45:16.645Z,0.65
2022-09-02T19:48:06.192Z,0.63
2022-09-02T19:50:33.024Z,0.57
2022-09-02T19:53:00.605Z,1.17
2022-09-02T19:55:28.259Z,1.20
2022-09-02T19:57:55.776Z,0.68
2022-09-02T20:00:24.568Z,0.60
2022-09-02T20:02:51.940Z,0.68
2022-09-02T20:05:20.315Z,1.95
2022-09-02T20:07:48.475Z,0.68
2022-09-02T20:10:17.030Z,0.77
2022-09-02T20:12:49.231Z,0.77
2022-09-02T20:15:17.249Z,0.80
2022-09-02T20:17:46.009Z,0.80
2022-09-02T20:20:18.177Z,0.70
2022-09-02T20:22:48.494Z,0.80
2022-09-02T20:25:16.645Z,0.80
2022-09-02T20:28:02.102Z,0.85
2022-09-02T20:30:34.239Z,1.02
2022-09-02T20:33:13.624Z,1.10
2022-09-02T20:35:52.888Z,0.90
2022-09-02T20:38:37.639Z,0.93
2022-09-02T20:41:10.771Z,0.85
2022-09-02T20:43:52.643Z,0.90
2022-09-02T20:46:47.810Z,0.88
2022-09-02T20:49:33.398Z,0.88
2022-09-02T20:52:05.539Z,1.00
2022-09-02T20:54:41.129Z,0.70
2022-09-02T20:57:25.245Z,0.90
2022-09-02T21:00:03.398Z,0.90
2022-09-02T21:02:36.779Z,0.82
2022-09-02T21:05:13.055Z,0.80
2022-09-02T21:07:45.505Z,0.80
2022-09-02T21:10:18.095Z,0.70
2022-09-02T21:12:51.625Z,1.13
2022-09-02T21:15:27.190Z,0.80
2022-09-02T21:17:59.845Z,0.70
2022-09-02T21:20:39.309Z,0.70
2022-09-02T21:23:11.893Z,0.70
2022-09-02T21:25:52.127Z,1.20
2022-09-02T21:28:24.336Z,0.85
2022-09-02T21:30:58.936Z,0.80
2022-09-02T21:33:29.072Z,0.85
2022-09-02T21:35:59.844Z,0.93
2022-09-02T21:38:33.884Z,1.00
2022-09-02T21:41:10.896Z,1.17
2022-09-02T21:43:49.131Z,1.30
2022-09-02T21:46:26.925Z,1.58
2022-09-02T21:49:01.759Z,1.73
2022-09-02T21:51:35.884Z,1.58
2022-09-02T21:54:25.060Z,1.58
2022-09-02T21:57:06.930Z,1.70
2022-09-02T22:00:01.183Z,1.38
2022-09-02T22:02:38.721Z,1.53
2022-09-02T22:05:16.409Z,1.30
2022-09-02T22:07:50.410Z,1.13
2022-09-02T22:10:28.658Z,0.85
2022-09-02T22:13:01.194Z,0.60
2022-09-02T22:15:37.519Z,0.70
2022-09-02T22:18:17.880Z,0.70
2022-09-02T22:20:45.891Z,0.70
2022-09-02T22:23:23.468Z,0.70
2022-09-02T22:25:52.709Z,0.60
2022-09-02T22:28:25.852Z,0.60
2022-09-02T22:30:58.078Z,0.60
2022-09-02T22:33:31.959Z,0.60
2022-09-02T22:36:05.175Z,0.60
2022-09-02T22:38:41.008Z,0.70
2022-09-02T22:41:19.953Z,0.77
2022-09-02T22:43:53.818Z,0.80
2022-09-02T22:46:43.271Z,0.80
2022-09-02T22:49:31.136Z,0.90
2022-09-02T22:52:23.573Z,2.10
2022-09-02T22:54:52.326Z,0.80
2022-09-02T22:57:33.556Z,0.90
2022-09-02T23:00:05.484Z,1.00
2022-09-02T23:02:37.680Z,1.00
2022-09-02T23:05:33.429Z,1.05
2022-09-02T23:08:00.961Z,1.00
2022-09-02T23:10:29.783Z,1.00
2022-09-02T23:13:04.163Z,1.13
2022-09-02T23:18:11.466Z,1.42
2022-09-02T23:20:48.329Z,1.77
2022-09-02T23:23:26.936Z,1.50
2022-09-02T23:26:09.903Z,1.48
2022-09-02T23:28:55.574Z,1.10
2022-09-02T23:31:31.249Z,1.10
2022-09-02T23:34:11.782Z,1.20
2022-09-02T23:36:49.268Z,1.10
2022-09-02T23:39:43.592Z,1.13
2022-09-02T23:42:13.711Z,1.15
2022-09-02T23:44:42.201Z,1.40
2022-09-02T23:47:23.828Z,1.45
2022-09-02T23:50:02.952Z,1.65
2022-09-02T23:52:43.167Z,2.10
2022-09-02T23:55:21.641Z,2.55
2022-09-02T23:58:06.350Z,3.42
